createdAt,value
2019-05-26T00:00:53.190Z,90.75
2019-05-26T00:01:53.211Z,90.28
2019-05-26T00:02:53.178Z,90.75
2019-05-26T00:03:53.235Z,90.95
2019-05-26T00:04:53.230Z,90.75
2019-05-26T00:05:53.361Z,90.42
2019-05-26T00:06:53.177Z,90.66
2019-05-26T00:07:53.166Z,91.24
2019-05-26T00:08:53.191Z,92.00
2019-05-26T00:09:53.197Z,92.96
2019-05-26T00:10:53.169Z,92.68
2019-05-26T00:11:53.179Z,91.66
2019-05-26T00:12:53.174Z,90.80
2019-05-26T00:13:53.216Z,91.62
2019-05-26T00:14:53.173Z,90.70
2019-05-26T00:15:53.251Z,90.95
2019-05-26T00:16:53.239Z,92.00
2019-05-26T00:17:53.186Z,92.00
2019-05-26T00:18:53.180Z,92.58
2019-05-26T00:19:53.201Z,93.06
2019-05-26T00:20:53.193Z,92.05
2019-05-26T00:21:53.180Z,91.28
2019-05-26T00:22:53.168Z,90.90
2019-05-26T00:23:56.202Z,91.72
2019-05-26T00:24:53.215Z,92.19
2019-05-26T00:25:53.186Z,91.38
2019-05-26T00:26:53.189Z,91.38
2019-05-26T00:27:53.179Z,90.80
2019-05-26T00:28:53.158Z,91.09
2019-05-26T00:29:53.167Z,91.09
2019-05-26T00:30:53.211Z,92.68
2019-05-26T00:31:53.172Z,94.17
2019-05-26T00:32:53.174Z,94.45
2019-05-26T00:33:53.164Z,94.54
2019-05-26T00:34:53.263Z,93.82
2019-05-26T00:35:53.191Z,93.63
2019-05-26T00:36:53.228Z,93.15
2019-05-26T00:37:53.202Z,92.58
2019-05-26T00:39:02.808Z,91.86
2019-05-26T00:40:57.705Z,91.72
2019-05-26T00:41:57.683Z,92.86
2019-05-26T00:42:57.679Z,93.68
2019-05-26T00:43:57.696Z,93.97
2019-05-26T00:44:57.701Z,93.59
2019-05-26T00:45:57.648Z,92.68
2019-05-26T00:46:57.678Z,92.39
2019-05-26T00:47:57.644Z,91.52
2019-05-26T00:48:57.638Z,91.33
2019-05-26T00:49:57.645Z,92.19
2019-05-26T00:50:57.690Z,91.81
2019-05-26T00:51:57.648Z,91.33
2019-05-26T00:52:57.660Z,91.33
2019-05-26T00:53:57.633Z,90.37
2019-05-26T00:54:57.670Z,91.33
2019-05-26T00:55:57.632Z,91.14
2019-05-26T00:56:57.650Z,90.95
2019-05-26T00:57:57.661Z,90.95
2019-05-26T00:58:57.660Z,89.03
2019-05-26T00:59:57.663Z,89.12
2019-05-26T01:00:57.648Z,89.61
2019-05-26T01:01:57.628Z,89.61
2019-05-26T01:02:57.643Z,89.70
2019-05-26T01:03:57.672Z,89.61
2019-05-26T01:04:57.671Z,88.84
2019-05-26T01:05:57.644Z,89.32
2019-05-26T01:06:57.674Z,89.41
2019-05-26T01:08:06.362Z,88.93
2019-05-26T01:08:57.710Z,88.26
2019-05-26T01:09:57.643Z,87.88
2019-05-26T01:11:01.128Z,87.49
2019-05-26T01:11:57.641Z,87.21
2019-05-26T01:12:57.657Z,88.26
2019-05-26T01:13:57.660Z,88.07
2019-05-26T01:14:57.644Z,88.17
2019-05-26T01:15:57.637Z,88.26
2019-05-26T01:16:57.782Z,87.78
2019-05-26T01:17:57.674Z,87.49
2019-05-26T01:18:57.658Z,87.21
2019-05-26T01:19:57.649Z,87.30
2019-05-26T01:20:57.684Z,86.82
2019-05-26T01:21:57.687Z,87.11
2019-05-26T01:22:57.647Z,87.01
2019-05-26T01:23:57.619Z,88.26
2019-05-26T01:24:57.654Z,88.74
2019-05-26T01:25:57.687Z,88.07
2019-05-26T01:26:57.657Z,88.17
2019-05-26T01:27:57.653Z,88.35
2019-05-26T01:28:57.651Z,88.35
2019-05-26T01:29:57.658Z,89.65
2019-05-26T01:30:57.686Z,90.23
2019-05-26T01:31:57.640Z,89.65
2019-05-26T01:32:57.662Z,88.93
2019-05-26T01:33:57.682Z,88.93
2019-05-26T01:34:57.632Z,88.55
2019-05-26T01:35:57.641Z,88.93
2019-05-26T01:39:09.462Z,91.38
2019-05-26T01:39:41.564Z,90.38
2019-05-26T01:40:41.561Z,90.14
2019-05-26T01:41:41.553Z,89.37
2019-05-26T01:42:41.555Z,89.85
2019-05-26T01:43:41.551Z,90.57
2019-05-26T01:44:41.555Z,91.72
2019-05-26T01:45:41.553Z,90.90
2019-05-26T01:46:41.559Z,90.42
2019-05-26T01:47:41.554Z,90.42
2019-05-26T01:48:41.548Z,90.42
2019-05-26T01:49:41.552Z,91.14
2019-05-26T01:50:41.546Z,91.72
2019-05-26T01:51:41.586Z,91.67
2019-05-26T01:52:41.546Z,91.24
2019-05-26T01:53:41.546Z,91.91
2019-05-26T01:54:41.580Z,91.82
2019-05-26T01:55:41.544Z,91.82
2019-05-26T01:56:41.542Z,90.67
2019-05-26T01:57:41.552Z,90.23
2019-05-26T01:58:41.546Z,89.75
2019-05-26T01:59:41.554Z,89.75
2019-05-26T02:00:41.554Z,89.56
2019-05-26T02:01:41.534Z,89.65
2019-05-26T02:02:41.531Z,89.94
2019-05-26T02:03:41.537Z,89.18
2019-05-26T02:04:41.531Z,88.79
2019-05-26T02:05:41.531Z,89.08
2019-05-26T02:06:41.529Z,88.70
2019-05-26T02:07:41.529Z,88.51
2019-05-26T02:08:41.517Z,88.51
2019-05-26T02:09:41.526Z,88.41
2019-05-26T02:10:41.520Z,88.31
2019-05-26T02:11:41.520Z,88.41
2019-05-26T02:12:41.582Z,88.70
2019-05-26T02:13:41.537Z,88.41
2019-05-26T02:14:41.511Z,88.60
2019-05-26T02:15:41.542Z,89.18
2019-05-26T02:16:41.528Z,88.70
2019-05-26T02:17:41.525Z,88.70
2019-05-26T02:18:41.514Z,88.89
2019-05-26T02:19:41.507Z,89.37
2019-05-26T02:20:41.505Z,88.89
2019-05-26T02:21:41.506Z,88.70
2019-05-26T02:22:41.498Z,88.12
2019-05-26T02:23:41.506Z,88.41
2019-05-26T02:24:41.494Z,88.41
2019-05-26T02:25:41.505Z,88.84
2019-05-26T02:26:41.496Z,89.42
2019-05-26T02:27:41.486Z,89.61
2019-05-26T02:28:48.648Z,88.70
2019-05-26T02:30:45.509Z,88.84
2019-05-26T02:31:45.486Z,89.04
2019-05-26T02:33:49.466Z,88.89
2019-05-26T02:34:56.615Z,88.41
2019-05-26T02:37:00.600Z,88.22
2019-05-26T02:37:53.463Z,88.31
2019-05-26T02:39:57.421Z,89.13
2019-05-26T02:40:57.422Z,89.32
2019-05-26T02:43:01.444Z,88.70
2019-05-26T02:44:01.425Z,88.12
2019-05-26T02:46:06.436Z,88.56
2019-05-26T02:47:06.404Z,88.75
2019-05-26T02:48:59.346Z,89.90
2019-05-26T02:49:59.322Z,90.19
2019-05-26T02:52:03.824Z,89.71
2019-05-26T02:53:03.799Z,90.53
2019-05-26T02:54:03.813Z,90.86
2019-05-26T02:55:03.799Z,90.91
2019-05-26T02:56:03.793Z,90.86
2019-05-26T02:57:03.796Z,89.86
2019-05-26T02:58:03.797Z,91.58
2019-05-26T02:59:03.790Z,92.73
2019-05-26T03:00:03.788Z,91.86
2019-05-26T03:01:03.792Z,92.06
2019-05-26T03:02:04.824Z,92.15
2019-05-26T03:03:03.784Z,92.49
2019-05-26T03:04:03.811Z,93.74
2019-05-26T03:05:03.777Z,93.11
2019-05-26T03:06:03.778Z,92.06
2019-05-26T03:07:03.782Z,91.77
2019-05-26T03:08:03.786Z,92.73
2019-05-26T03:09:21.101Z,93.93
2019-05-26T03:10:03.771Z,93.59
2019-05-26T03:11:03.766Z,92.06
2019-05-26T03:12:03.768Z,92.63
2019-05-26T03:13:03.764Z,93.45
2019-05-26T03:14:03.770Z,94.02
2019-05-26T03:15:03.762Z,93.83
2019-05-26T03:16:03.760Z,94.79
2019-05-26T03:17:03.782Z,95.07
2019-05-26T03:18:03.755Z,95.65
2019-05-26T03:19:03.753Z,95.65
2019-05-26T03:20:03.750Z,95.94
2019-05-26T03:21:03.776Z,95.98
2019-05-26T03:22:03.751Z,95.89
2019-05-26T03:23:03.742Z,95.65
2019-05-26T03:24:03.742Z,93.59
2019-05-26T03:25:03.739Z,93.64
2019-05-26T03:26:03.743Z,93.11
2019-05-26T03:27:03.741Z,92.63
2019-05-26T03:28:03.733Z,93.26
2019-05-26T03:29:03.729Z,94.69
2019-05-26T03:30:03.734Z,94.69
2019-05-26T03:31:03.727Z,93.88
2019-05-26T03:32:03.733Z,93.02
2019-05-26T03:33:03.723Z,93.45
2019-05-26T03:34:03.777Z,94.12
2019-05-26T03:35:03.823Z,95.27
2019-05-26T03:36:03.712Z,93.78
2019-05-26T03:37:03.718Z,94.69
2019-05-26T03:38:03.715Z,95.56
2019-05-26T03:39:03.715Z,96.13
2019-05-26T03:40:03.709Z,95.65
2019-05-26T03:41:03.707Z,95.36
2019-05-26T03:42:03.710Z,96.18
2019-05-26T03:43:03.714Z,97.13
2019-05-26T03:44:03.711Z,96.22
2019-05-26T03:45:03.703Z,96.22
2019-05-26T03:46:03.691Z,97.04
2019-05-26T03:47:03.694Z,95.17
2019-05-26T03:48:03.692Z,95.07
2019-05-26T03:49:03.692Z,96.03
2019-05-26T03:50:03.699Z,97.18
2019-05-26T03:51:03.680Z,96.32
2019-05-26T03:52:03.684Z,96.22
2019-05-26T03:53:03.687Z,94.45
2019-05-26T03:54:03.694Z,94.50
2019-05-26T03:55:03.697Z,94.98
2019-05-26T03:56:03.705Z,96.27
2019-05-26T03:57:03.676Z,97.61
2019-05-26T03:58:03.673Z,96.22
2019-05-26T03:59:03.669Z,95.94
2019-05-26T04:00:03.676Z,97.09
2019-05-26T04:01:03.670Z,96.03
2019-05-26T04:02:03.672Z,94.98
2019-05-26T04:03:03.680Z,96.66
2019-05-26T04:04:03.664Z,97.13
2019-05-26T04:05:03.661Z,97.80
2019-05-26T04:06:03.661Z,98.05
2019-05-26T04:23:30.467Z,95.17
2019-05-26T04:24:30.464Z,93.98
2019-05-26T04:26:34.466Z,92.73
2019-05-26T04:27:34.459Z,92.44
2019-05-26T04:29:27.991Z,93.30
2019-05-26T04:30:27.914Z,93.74
2019-05-26T04:31:27.868Z,93.40
2019-05-26T04:32:27.864Z,93.88
2019-05-26T04:33:27.869Z,92.82
2019-05-26T04:34:27.863Z,93.11
2019-05-26T04:35:27.855Z,92.58
2019-05-26T04:36:27.843Z,90.86
2019-05-26T04:37:27.855Z,88.79
2019-05-26T04:38:27.853Z,87.49
2019-05-26T04:39:27.847Z,86.82
2019-05-26T04:40:28.339Z,88.60
2019-05-26T04:41:27.869Z,88.89
2019-05-26T04:42:27.847Z,88.12
2019-05-26T04:43:27.878Z,87.93
2019-05-26T04:44:27.851Z,88.02
2019-05-26T04:45:27.849Z,87.74
2019-05-26T04:46:27.853Z,86.54
2019-05-26T04:47:27.864Z,85.91
2019-05-26T04:48:27.855Z,84.12
2019-05-26T04:49:27.858Z,82.40
2019-05-26T04:50:27.890Z,82.78
2019-05-26T04:51:27.880Z,81.57
2019-05-26T04:52:27.894Z,80.27
2019-05-26T04:53:27.881Z,79.60
2019-05-26T04:54:27.887Z,78.92
2019-05-26T04:55:27.893Z,80.96
2019-05-26T04:56:27.905Z,81.43
2019-05-26T04:57:27.926Z,80.99
2019-05-26T04:58:27.919Z,79.88
2019-05-26T04:59:27.923Z,78.92
2019-05-26T05:00:27.931Z,76.94
2019-05-26T05:01:27.947Z,74.90
2019-05-26T05:02:27.954Z,73.24
2019-05-26T05:03:27.960Z,70.38
2019-05-26T05:04:27.969Z,69.16
2019-05-26T05:05:27.975Z,67.94
2019-05-26T05:06:27.984Z,66.88
2019-05-26T05:07:28.643Z,65.75
2019-05-26T05:08:28.007Z,65.95
2019-05-26T05:09:28.013Z,65.75
2019-05-26T05:10:41.343Z,65.66
2019-05-26T05:11:28.120Z,65.75
2019-05-26T05:12:28.047Z,64.37
2019-05-26T05:13:28.061Z,62.27
2019-05-26T05:14:28.073Z,60.95
2019-05-26T05:15:28.079Z,60.21
2019-05-26T05:16:28.111Z,59.07
2019-05-26T05:17:28.112Z,58.49
2019-05-26T05:18:28.126Z,57.81
2019-05-26T05:19:28.142Z,57.36
2019-05-26T05:20:28.148Z,55.83
2019-05-26T05:21:28.167Z,55.87
2019-05-26T05:22:28.175Z,55.38
2019-05-26T05:23:28.186Z,55.35
2019-05-26T05:24:28.215Z,54.77
2019-05-26T05:25:28.221Z,53.39
2019-05-26T05:26:28.253Z,52.15
2019-05-26T05:27:28.246Z,51.67
2019-05-26T05:28:28.328Z,51.93
2019-05-26T05:29:28.272Z,51.31
2019-05-26T05:30:28.299Z,50.89
2019-05-26T05:31:28.302Z,50.34
2019-05-26T05:32:28.313Z,49.99
2019-05-26T05:33:28.333Z,49.68
2019-05-26T05:34:28.342Z,49.61
2019-05-26T05:35:28.359Z,49.87
2019-05-26T05:36:28.381Z,49.10
2019-05-26T05:37:28.399Z,48.36
2019-05-26T05:38:28.405Z,47.78
2019-05-26T05:39:28.424Z,47.15
2019-05-26T05:40:28.440Z,46.83
2019-05-26T05:41:28.453Z,46.66
2019-05-26T05:42:28.475Z,45.90
2019-05-26T05:43:28.484Z,45.98
2019-05-26T05:44:28.497Z,46.78
2019-05-26T05:45:28.519Z,45.59
2019-05-26T05:46:28.535Z,45.32
2019-05-26T05:47:28.552Z,45.32
2019-05-26T05:48:28.567Z,44.76
2019-05-26T05:49:28.588Z,44.66
2019-05-26T05:50:28.598Z,44.73
2019-05-26T05:51:28.617Z,45.74
2019-05-26T05:52:28.629Z,47.20
2019-05-26T05:53:28.659Z,47.10
2019-05-26T05:54:28.669Z,46.25
2019-05-26T05:55:28.694Z,45.32
2019-05-26T05:56:28.706Z,44.09
2019-05-26T05:57:28.727Z,43.32
2019-05-26T05:58:28.735Z,43.24
2019-05-26T05:59:28.758Z,43.29
2019-05-26T06:00:28.777Z,43.02
2019-05-26T06:01:28.784Z,42.75
2019-05-26T06:02:28.802Z,42.09
2019-05-26T06:03:28.817Z,41.23
2019-05-26T06:04:28.830Z,41.67
2019-05-26T06:05:28.851Z,40.25
2019-05-26T06:06:28.869Z,40.74
2019-05-26T06:07:28.896Z,41.02
2019-05-26T06:08:28.903Z,40.74
2019-05-26T06:09:28.922Z,40.06
2019-05-26T06:10:28.946Z,39.33
2019-05-26T06:11:28.958Z,39.88
2019-05-26T06:12:28.977Z,39.67
2019-05-26T06:13:28.997Z,40.25
2019-05-26T06:14:29.052Z,41.48
2019-05-26T06:15:29.020Z,41.75
2019-05-26T06:16:29.049Z,43.35
2019-05-26T06:17:29.060Z,48.35
2019-05-26T06:18:29.068Z,54.69
2019-05-26T06:19:29.077Z,59.51
2019-05-26T06:20:29.084Z,62.63
2019-05-26T06:21:29.095Z,64.28
2019-05-26T06:22:29.106Z,64.56
2019-05-26T06:23:29.121Z,65.59
2019-05-26T06:24:29.133Z,66.52
2019-05-26T06:25:29.149Z,68.71
2019-05-26T06:26:29.146Z,69.57
2019-05-26T06:27:29.155Z,69.19
2019-05-26T06:28:29.167Z,69.15
2019-05-26T06:29:29.169Z,70.50
2019-05-26T06:30:29.184Z,72.88
2019-05-26T06:31:29.189Z,72.30
2019-05-26T06:32:29.195Z,73.51
2019-05-26T06:33:29.198Z,73.16
2019-05-26T06:34:29.204Z,73.36
2019-05-26T06:35:32.438Z,73.36
2019-05-26T06:36:29.226Z,73.46
2019-05-26T06:37:29.228Z,73.84
2019-05-26T06:38:29.236Z,73.65
2019-05-26T06:39:29.239Z,73.74
2019-05-26T06:40:29.243Z,73.16
2019-05-26T06:41:34.036Z,73.94
2019-05-26T06:42:29.251Z,74.09
2019-05-26T06:43:29.259Z,74.38
2019-05-26T06:44:29.258Z,75.31
2019-05-26T06:45:29.268Z,75.31
2019-05-26T06:46:29.287Z,75.11
2019-05-26T06:47:29.275Z,76.07
2019-05-26T06:48:29.279Z,75.88
2019-05-26T06:49:29.283Z,75.88
2019-05-26T06:50:29.291Z,76.81
2019-05-26T06:51:29.294Z,77.23
2019-05-26T06:52:29.303Z,76.84
2019-05-26T06:53:29.297Z,76.65
2019-05-26T06:54:29.304Z,77.67
2019-05-26T06:55:29.298Z,78.25
2019-05-26T06:56:29.307Z,77.67
2019-05-26T06:57:29.316Z,78.78
2019-05-26T06:58:29.313Z,78.92
2019-05-26T06:59:29.321Z,78.53
2019-05-26T07:00:29.330Z,78.63
2019-05-26T07:01:29.321Z,78.53
2019-05-26T07:02:29.334Z,78.63
2019-05-26T07:03:29.336Z,79.02
2019-05-26T07:04:29.351Z,79.60
2019-05-26T07:05:29.334Z,79.65
2019-05-26T07:06:29.341Z,79.50
2019-05-26T07:07:29.341Z,79.40
2019-05-26T07:08:29.347Z,79.21
2019-05-26T07:09:29.343Z,78.83
2019-05-26T07:10:29.355Z,78.44
2019-05-26T07:11:29.352Z,78.28
2019-05-26T07:12:29.351Z,78.53
2019-05-26T07:13:29.374Z,78.92
2019-05-26T07:14:29.373Z,78.44
2019-05-26T07:15:29.380Z,78.53
2019-05-26T07:16:38.159Z,78.63
2019-05-26T07:17:29.375Z,79.55
2019-05-26T07:18:29.370Z,80.71
2019-05-26T07:19:29.369Z,80.36
2019-05-26T07:20:29.370Z,80.55
2019-05-26T07:21:29.392Z,79.50
2019-05-26T07:22:29.377Z,79.21
2019-05-26T07:23:29.380Z,79.11
2019-05-26T07:24:29.717Z,79.40
2019-05-26T07:25:29.390Z,79.69
2019-05-26T07:26:29.395Z,80.13
2019-05-26T07:27:29.389Z,80.32
2019-05-26T07:28:29.399Z,80.17
2019-05-26T07:29:29.396Z,80.32
2019-05-26T07:30:29.393Z,80.13
2019-05-26T07:31:29.398Z,79.79
2019-05-26T07:32:29.397Z,79.46
2019-05-26T07:33:29.400Z,80.17
2019-05-26T07:34:29.403Z,79.60
2019-05-26T07:35:29.408Z,79.21
2019-05-26T07:36:29.411Z,79.50
2019-05-26T07:37:29.413Z,79.79
2019-05-26T07:38:29.439Z,79.60
2019-05-26T07:39:29.414Z,79.69
2019-05-26T07:40:29.421Z,80.07
2019-05-26T07:41:29.416Z,79.40
2019-05-26T07:42:29.416Z,78.92
2019-05-26T07:43:29.429Z,78.63
2019-05-26T07:44:29.426Z,79.30
2019-05-26T07:45:29.425Z,79.30
2019-05-26T07:46:29.428Z,79.40
2019-05-26T07:47:29.440Z,79.40
2019-05-26T07:48:29.437Z,79.30
2019-05-26T07:49:29.437Z,79.50
2019-05-26T07:50:29.439Z,80.13
2019-05-26T07:51:29.440Z,80.51
2019-05-26T07:52:29.458Z,80.90
2019-05-26T07:53:29.446Z,80.71
2019-05-26T07:54:29.442Z,81.28
2019-05-26T07:55:29.450Z,80.65
2019-05-26T07:56:29.444Z,80.46
2019-05-26T07:57:29.452Z,80.17
2019-05-26T07:58:29.446Z,79.60
2019-05-26T07:59:29.449Z,79.79
2019-05-26T08:00:29.458Z,80.07
2019-05-26T08:01:35.565Z,80.46
2019-05-26T08:02:29.453Z,80.55
2019-05-26T08:03:29.461Z,80.17
2019-05-26T08:04:29.459Z,80.27
2019-05-26T08:05:29.461Z,80.27
2019-05-26T08:06:29.466Z,81.04
2019-05-26T08:07:29.466Z,81.13
2019-05-26T08:08:29.475Z,80.84
2019-05-26T08:09:29.477Z,80.07
2019-05-26T08:10:29.491Z,80.75
2019-05-26T08:11:29.471Z,80.27
2019-05-26T08:12:30.733Z,80.17
2019-05-26T08:13:29.482Z,79.40
2019-05-26T08:14:29.490Z,80.36
2019-05-26T08:15:29.493Z,80.17
2019-05-26T08:16:29.482Z,80.17
2019-05-26T08:17:29.510Z,80.80
2019-05-26T08:18:29.577Z,81.48
2019-05-26T08:19:29.491Z,81.13
2019-05-26T08:20:29.488Z,80.65
2019-05-26T08:21:29.498Z,81.13
2019-05-26T08:22:29.488Z,80.65
2019-05-26T08:23:29.497Z,80.36
2019-05-26T08:24:29.495Z,80.84
2019-05-26T08:25:29.498Z,80.17
2019-05-26T08:26:29.509Z,79.50
2019-05-26T08:27:29.509Z,79.30
2019-05-26T08:28:29.526Z,79.21
2019-05-26T08:29:29.523Z,79.60
2019-05-26T08:30:29.515Z,80.36
2019-05-26T08:31:29.519Z,80.46
2019-05-26T08:32:29.524Z,80.36
2019-05-26T08:33:29.516Z,79.98
2019-05-26T08:34:29.524Z,79.50
2019-05-26T08:35:29.525Z,79.40
2019-05-26T08:36:29.525Z,80.36
2019-05-26T08:37:29.529Z,79.69
2019-05-26T08:38:29.528Z,78.38
2019-05-26T08:39:29.534Z,79.11
2019-05-26T08:40:29.540Z,78.53
2019-05-26T08:41:29.536Z,78.92
2019-05-26T08:42:43.793Z,79.40
2019-05-26T08:43:29.537Z,79.79
2019-05-26T08:44:29.597Z,80.46
2019-05-26T08:45:29.544Z,79.73
2019-05-26T08:46:29.551Z,79.82
2019-05-26T08:47:29.555Z,79.63
2019-05-26T08:48:29.552Z,79.11
2019-05-26T08:49:29.551Z,79.60
2019-05-26T08:50:29.559Z,78.53
2019-05-26T08:51:29.558Z,78.92
2019-05-26T08:52:29.557Z,79.50
2019-05-26T08:53:29.564Z,79.88
2019-05-26T08:54:29.563Z,79.50
2019-05-26T08:55:29.566Z,79.40
2019-05-26T08:56:29.577Z,80.17
2019-05-26T08:57:29.580Z,80.84
2019-05-26T08:58:29.653Z,80.55
2019-05-26T08:59:29.580Z,79.02
2019-05-26T09:00:29.581Z,79.21
2019-05-26T09:01:29.571Z,79.11
2019-05-26T09:02:29.619Z,79.69
2019-05-26T09:03:29.578Z,79.40
2019-05-26T09:04:29.581Z,79.92
2019-05-26T09:05:29.583Z,81.27
2019-05-26T09:06:29.580Z,81.27
2019-05-26T09:07:29.601Z,80.21
2019-05-26T09:08:29.592Z,80.21
2019-05-26T09:09:29.588Z,80.21
2019-05-26T09:10:29.592Z,80.36
2019-05-26T09:11:29.607Z,81.07
2019-05-26T09:12:29.604Z,81.07
2019-05-26T09:13:29.600Z,80.69
2019-05-26T09:14:29.599Z,80.02
2019-05-26T09:15:29.602Z,80.21
2019-05-26T09:16:29.632Z,79.69
2019-05-26T09:17:29.609Z,80.36
2019-05-26T09:18:29.610Z,79.30
2019-05-26T09:19:29.615Z,77.96
2019-05-26T09:20:29.613Z,78.38
2019-05-26T09:21:29.616Z,78.00
2019-05-26T09:22:29.615Z,77.61
2019-05-26T09:23:29.615Z,78.67
2019-05-26T09:24:29.620Z,78.58
2019-05-26T09:25:29.636Z,79.15
2019-05-26T09:26:29.624Z,78.58
2019-05-26T09:27:29.654Z,78.00
2019-05-26T09:28:29.626Z,76.84
2019-05-26T09:29:29.657Z,77.51
2019-05-26T09:30:29.635Z,78.19
2019-05-26T09:31:29.645Z,77.61
2019-05-26T09:32:29.644Z,77.71
2019-05-26T09:33:29.633Z,77.81
2019-05-26T09:34:29.936Z,77.13
2019-05-26T09:35:29.650Z,77.51
2019-05-26T09:36:29.640Z,77.04
2019-05-26T09:37:29.645Z,76.94
2019-05-26T09:38:29.663Z,76.26
2019-05-26T09:39:29.646Z,76.17
2019-05-26T09:40:29.662Z,76.07
2019-05-26T09:41:29.655Z,75.92
2019-05-26T09:42:29.658Z,75.92
2019-05-26T09:43:29.671Z,76.94
2019-05-26T09:44:29.663Z,76.78
2019-05-26T09:45:29.663Z,76.88
2019-05-26T09:46:29.661Z,76.31
2019-05-26T09:47:29.672Z,76.50
2019-05-26T09:48:29.707Z,76.78
2019-05-26T09:49:29.674Z,77.81
2019-05-26T09:50:29.669Z,76.75
2019-05-26T09:51:29.703Z,75.98
2019-05-26T09:52:29.673Z,76.69
2019-05-26T09:53:29.688Z,76.78
2019-05-26T09:54:29.679Z,76.50
2019-05-26T09:55:29.697Z,76.59
2019-05-26T09:56:29.684Z,76.01
2019-05-26T09:57:29.706Z,74.67
2019-05-26T09:58:29.692Z,74.19
2019-05-26T09:59:29.734Z,74.19
2019-05-26T10:00:29.746Z,75.05
2019-05-26T10:01:29.742Z,75.63
2019-05-26T10:02:29.710Z,74.76
2019-05-26T10:03:29.702Z,74.73
2019-05-26T10:04:29.704Z,75.59
2019-05-26T10:05:29.712Z,75.34
2019-05-26T10:06:29.718Z,74.67
2019-05-26T10:07:29.725Z,75.44
2019-05-26T10:08:29.723Z,75.59
2019-05-26T10:09:29.843Z,75.44
2019-05-26T10:10:29.739Z,74.76
2019-05-26T10:11:29.730Z,73.99
2019-05-26T10:12:29.777Z,73.42
2019-05-26T10:13:31.968Z,74.13
2019-05-26T10:14:29.739Z,73.94
2019-05-26T10:15:29.737Z,71.62
2019-05-26T10:16:29.742Z,71.34
2019-05-26T10:17:29.746Z,72.11
2019-05-26T10:18:29.756Z,71.11
2019-05-26T10:19:29.747Z,70.76
2019-05-26T10:20:29.775Z,70.47
2019-05-26T10:21:29.787Z,70.37
2019-05-26T10:22:29.752Z,70.66
2019-05-26T10:23:29.753Z,71.34
2019-05-26T10:24:29.763Z,73.16
2019-05-26T10:25:29.768Z,73.65
2019-05-26T10:26:29.771Z,70.86
2019-05-26T10:27:29.792Z,69.12
2019-05-26T10:28:29.777Z,69.31
2019-05-26T10:29:29.766Z,70.18
2019-05-26T10:30:29.781Z,68.64
2019-05-26T10:31:29.780Z,69.12
2019-05-26T10:32:29.796Z,69.70
2019-05-26T10:33:29.779Z,70.28
2019-05-26T10:34:29.793Z,71.04
2019-05-26T10:35:29.782Z,69.89
2019-05-26T10:36:29.788Z,69.79
2019-05-26T10:37:29.803Z,69.60
2019-05-26T10:38:29.792Z,67.58
2019-05-26T10:39:29.844Z,66.91
2019-05-26T10:40:29.809Z,67.00
2019-05-26T10:41:29.811Z,68.26
2019-05-26T10:42:29.808Z,69.60
2019-05-26T10:43:29.811Z,70.28
2019-05-26T10:44:29.815Z,70.47
2019-05-26T10:45:29.814Z,70.18
2019-05-26T10:46:29.818Z,68.44
2019-05-26T10:47:29.821Z,66.91
2019-05-26T10:48:29.824Z,67.87
2019-05-26T10:49:29.823Z,68.16
2019-05-26T10:50:29.829Z,69.31
2019-05-26T10:51:29.966Z,68.84
2019-05-26T10:52:29.868Z,69.31
2019-05-26T10:53:29.829Z,69.54
2019-05-26T10:54:29.826Z,70.31
2019-05-26T10:55:29.833Z,69.93
2019-05-26T10:56:29.842Z,69.06
2019-05-26T10:57:29.851Z,69.15
2019-05-26T10:58:29.855Z,68.87
2019-05-26T10:59:31.226Z,69.45
2019-05-26T11:00:32.794Z,69.93
2019-05-26T11:01:29.926Z,69.15
2019-05-26T11:02:29.893Z,69.64
2019-05-26T11:03:29.893Z,69.35
2019-05-26T11:04:29.861Z,68.48
2019-05-26T11:05:29.981Z,67.81
2019-05-26T11:06:29.870Z,67.03
2019-05-26T11:07:29.869Z,67.23
2019-05-26T11:08:29.877Z,67.33
2019-05-26T11:09:29.972Z,67.90
2019-05-26T11:10:29.931Z,68.10
2019-05-26T11:11:29.883Z,68.19
2019-05-26T11:12:29.882Z,68.84
2019-05-26T11:13:29.900Z,69.15
2019-05-26T11:14:29.934Z,68.87
2019-05-26T11:15:29.901Z,68.38
2019-05-26T11:16:29.997Z,68.10
2019-05-26T11:17:29.945Z,68.48
2019-05-26T11:18:29.955Z,68.38
2019-05-26T11:19:29.909Z,68.10
2019-05-26T11:20:29.972Z,67.81
2019-05-26T11:21:29.960Z,67.71
2019-05-26T11:22:29.919Z,68.38
2019-05-26T11:23:29.921Z,69.06
2019-05-26T11:24:29.939Z,70.02
2019-05-26T11:25:29.926Z,69.64
2019-05-26T11:26:29.942Z,69.35
2019-05-26T11:27:29.947Z,69.64
2019-05-26T11:28:29.935Z,69.87
2019-05-26T11:29:29.933Z,69.29
2019-05-26T11:30:29.946Z,69.19
2019-05-26T11:31:30.029Z,69.19
2019-05-26T11:32:29.955Z,68.52
2019-05-26T11:33:29.955Z,68.42
2019-05-26T11:34:29.946Z,68.52
2019-05-26T11:35:29.973Z,68.52
2019-05-26T11:36:29.972Z,68.48
2019-05-26T11:37:29.963Z,68.48
2019-05-26T11:38:33.301Z,68.42
2019-05-26T11:39:29.969Z,67.74
2019-05-26T11:40:29.971Z,66.39
2019-05-26T11:41:29.979Z,66.49
2019-05-26T11:42:29.981Z,66.78
2019-05-26T11:43:29.975Z,65.91
2019-05-26T11:44:29.985Z,65.05
2019-05-26T11:45:29.981Z,64.76
2019-05-26T11:46:29.996Z,65.43
2019-05-26T11:47:29.985Z,65.91
2019-05-26T11:48:29.995Z,66.30
2019-05-26T11:49:30.011Z,66.01
2019-05-26T11:50:29.998Z,65.53
2019-05-26T11:51:30.043Z,66.01
2019-05-26T11:52:30.009Z,66.59
2019-05-26T11:53:30.101Z,65.43
2019-05-26T11:54:30.019Z,64.37
2019-05-26T11:55:30.022Z,64.11
2019-05-26T11:56:30.098Z,64.18
2019-05-26T11:57:30.095Z,64.37
2019-05-26T11:58:30.033Z,64.02
2019-05-26T11:59:30.084Z,64.08
2019-05-26T12:00:30.041Z,63.79
2019-05-26T12:01:30.055Z,63.98
2019-05-26T12:02:30.040Z,64.56
2019-05-26T12:03:30.090Z,64.56
2019-05-26T12:04:30.044Z,64.40
2019-05-26T12:05:30.074Z,63.24
2019-05-26T12:06:30.061Z,63.44
2019-05-26T12:07:30.064Z,64.02
2019-05-26T12:08:30.087Z,64.31
2019-05-26T12:09:30.065Z,62.54
2019-05-26T12:10:30.075Z,62.25
2019-05-26T12:11:30.079Z,63.44
2019-05-26T12:12:30.075Z,62.76
2019-05-26T12:13:30.081Z,61.13
2019-05-26T12:14:35.012Z,61.41
2019-05-26T12:15:30.082Z,61.51
2019-05-26T12:16:30.251Z,61.90
2019-05-26T12:17:30.088Z,62.96
2019-05-26T12:18:30.255Z,63.44
2019-05-26T12:19:30.099Z,62.57
2019-05-26T12:20:30.106Z,62.86
2019-05-26T12:21:30.114Z,63.34
2019-05-26T12:22:30.107Z,63.44
2019-05-26T12:23:30.113Z,63.34
2019-05-26T12:24:30.126Z,64.02
2019-05-26T12:25:30.120Z,63.44
2019-05-26T12:26:30.125Z,62.25
2019-05-26T12:27:30.126Z,62.54
2019-05-26T12:28:30.133Z,62.25
2019-05-26T12:29:30.138Z,62.73
2019-05-26T12:30:30.141Z,62.66
2019-05-26T12:31:30.145Z,63.24
2019-05-26T12:32:30.148Z,62.57
2019-05-26T12:33:30.161Z,61.71
2019-05-26T12:34:30.152Z,61.41
2019-05-26T12:35:30.158Z,62.76
2019-05-26T12:36:30.158Z,63.54
2019-05-26T12:37:30.169Z,63.92
2019-05-26T12:38:30.166Z,64.21
2019-05-26T12:39:30.182Z,64.59
2019-05-26T12:40:30.178Z,64.98
2019-05-26T12:41:33.233Z,65.56
2019-05-26T12:42:30.179Z,66.04
2019-05-26T12:43:30.241Z,65.27
2019-05-26T12:44:30.190Z,65.37
2019-05-26T12:45:30.190Z,65.56
2019-05-26T12:46:30.224Z,64.69
2019-05-26T12:47:30.198Z,63.44
2019-05-26T12:48:30.208Z,62.09
2019-05-26T12:49:30.202Z,62.18
2019-05-26T12:50:30.208Z,63.24
2019-05-26T12:51:30.212Z,63.54
2019-05-26T12:52:30.215Z,62.96
2019-05-26T12:53:30.221Z,62.41
2019-05-26T12:54:30.220Z,62.76
2019-05-26T12:55:30.224Z,63.18
2019-05-26T12:56:30.236Z,62.38
2019-05-26T12:57:30.232Z,62.57
2019-05-26T12:58:30.232Z,61.32
2019-05-26T12:59:30.236Z,60.45
2019-05-26T13:00:47.060Z,61.32
2019-05-26T13:01:30.246Z,61.99
2019-05-26T13:02:30.246Z,62.66
2019-05-26T13:03:30.246Z,62.38
2019-05-26T13:04:30.256Z,62.28
2019-05-26T13:05:30.254Z,62.09
2019-05-26T13:06:30.274Z,62.89
2019-05-26T13:07:30.293Z,62.76
2019-05-26T13:08:30.267Z,63.15
2019-05-26T13:09:30.275Z,63.34
2019-05-26T13:10:30.282Z,63.28
2019-05-26T13:11:30.284Z,62.79
2019-05-26T13:12:30.287Z,62.89
2019-05-26T13:13:30.299Z,62.22
2019-05-26T13:14:30.325Z,62.41
2019-05-26T13:15:30.337Z,62.79
2019-05-26T13:16:30.291Z,63.37
2019-05-26T13:17:30.311Z,62.79
2019-05-26T13:18:30.301Z,62.89
2019-05-26T13:19:30.307Z,62.89
2019-05-26T13:20:30.432Z,63.28
2019-05-26T13:21:30.335Z,63.37
2019-05-26T13:22:30.313Z,63.95